createdAt,value
2019-05-23T00:00:31.107Z,4.47
2019-05-23T00:03:56.702Z,5.60
2019-05-23T00:07:02.932Z,4.23
2019-05-23T00:10:13.037Z,3.33
2019-05-23T00:13:53.609Z,3.70
2019-05-23T00:17:00.027Z,3.77
2019-05-23T00:20:06.924Z,4.07
2019-05-23T00:23:13.856Z,3.83
2019-05-23T00:26:19.405Z,5.57
2019-05-23T00:29:26.061Z,5.87
2019-05-23T00:32:38.022Z,4.93
2019-05-23T00:35:43.244Z,4.23
2019-05-23T00:38:50.011Z,3.90
2019-05-23T00:41:55.980Z,3.97
2019-05-23T00:45:01.811Z,3.40
2019-05-23T00:48:07.481Z,4.33
2019-05-23T00:51:13.416Z,3.20
2019-05-23T00:54:19.628Z,4.10
2019-05-23T00:57:27.783Z,3.97
2019-05-23T01:00:35.098Z,4.20
2019-05-23T01:03:40.581Z,4.43
2019-05-23T01:06:47.838Z,4.17
2019-05-23T01:09:53.728Z,3.90
2019-05-23T01:12:59.058Z,3.50
2019-05-23T01:16:05.244Z,4.10
2019-05-23T01:19:10.244Z,3.60
2019-05-23T01:22:17.205Z,4.30
2019-05-23T01:25:24.472Z,4.57
2019-05-23T01:28:30.645Z,4.40
2019-05-23T01:31:38.664Z,4.23
2019-05-23T01:34:44.758Z,3.70
2019-05-23T01:37:51.164Z,4.17
2019-05-23T01:40:56.147Z,4.60
2019-05-23T01:44:02.391Z,4.27
2019-05-23T01:47:09.032Z,5.40
2019-05-23T01:50:14.320Z,5.40
2019-05-23T01:53:20.102Z,5.40
2019-05-23T01:56:25.570Z,5.70
2019-05-23T01:59:30.765Z,4.80
2019-05-23T02:02:36.078Z,5.80
2019-05-23T02:05:41.507Z,6.03
2019-05-23T02:08:46.866Z,4.50
2019-05-23T02:11:52.354Z,4.30
2019-05-23T02:14:57.470Z,5.50
2019-05-23T02:18:03.069Z,4.90
2019-05-23T02:21:09.493Z,4.43
2019-05-23T02:24:16.345Z,4.43
2019-05-23T02:27:23.344Z,5.23
2019-05-23T02:30:34.737Z,4.90
2019-05-23T02:33:35.696Z,5.57
2019-05-23T02:36:41.712Z,5.07
2019-05-23T02:40:08.784Z,6.30
2019-05-23T02:43:17.089Z,5.43
2019-05-23T02:46:31.215Z,5.00
2019-05-23T02:49:38.059Z,5.67
2019-05-23T02:52:46.698Z,6.20
2019-05-23T02:55:55.173Z,5.17
2019-05-23T02:59:17.973Z,4.50
2019-05-23T03:02:45.923Z,4.27
2019-05-23T03:05:51.017Z,4.60
2019-05-23T03:08:57.112Z,6.37
2019-05-23T03:12:03.321Z,5.83
2019-05-23T03:15:11.262Z,5.93
2019-05-23T03:18:19.339Z,5.00
2019-05-23T03:21:25.728Z,6.77
2019-05-23T03:24:40.752Z,7.07
2019-05-23T03:27:46.738Z,5.83
2019-05-23T03:31:21.866Z,7.13
2019-05-23T03:34:01.648Z,7.30
2019-05-23T03:37:06.947Z,5.07
2019-05-23T03:40:12.767Z,4.87
2019-05-23T03:43:17.898Z,5.63
2019-05-23T03:46:27.049Z,8.70
2019-05-23T03:49:34.403Z,5.00
2019-05-23T03:52:39.510Z,5.17
2019-05-23T03:55:45.965Z,5.03
2019-05-23T03:58:54.200Z,5.43
2019-05-23T04:02:01.035Z,6.17
2019-05-23T04:05:09.003Z,5.47
2019-05-23T04:08:15.466Z,5.50
2019-05-23T04:11:20.958Z,3.90
2019-05-23T04:14:45.886Z,4.63
2019-05-23T04:17:50.873Z,5.13
2019-05-23T04:20:56.937Z,5.20
2019-05-23T04:24:02.063Z,4.73
2019-05-23T04:27:07.124Z,6.10
2019-05-23T04:30:12.252Z,4.00
2019-05-23T04:33:17.698Z,4.80
2019-05-23T04:36:23.595Z,5.43
2019-05-23T04:39:28.843Z,4.70
2019-05-23T04:42:34.071Z,5.10
2019-05-23T04:45:40.151Z,6.87
2019-05-23T04:48:45.458Z,7.30
2019-05-23T04:51:50.378Z,7.07
2019-05-23T04:54:55.972Z,8.17
2019-05-23T04:58:04.526Z,7.17
2019-05-23T05:01:09.230Z,5.57
2019-05-23T05:04:14.519Z,6.17
2019-05-23T05:07:19.610Z,4.93
2019-05-23T05:10:26.366Z,5.67
2019-05-23T05:13:32.598Z,5.63
2019-05-23T05:16:38.640Z,5.47
2019-05-23T05:19:43.691Z,5.20
2019-05-23T05:22:48.898Z,5.43
2019-05-23T05:25:53.940Z,5.30
2019-05-23T05:28:59.140Z,5.40
2019-05-23T05:32:06.255Z,5.20
2019-05-23T05:35:12.257Z,5.77
2019-05-23T05:38:17.373Z,6.87
2019-05-23T05:41:22.490Z,5.80
2019-05-23T05:44:27.685Z,5.90
2019-05-23T05:47:32.865Z,8.10
2019-05-23T05:50:38.413Z,6.23
2019-05-23T05:53:43.916Z,5.20
2019-05-23T05:56:48.821Z,8.37
2019-05-23T05:59:53.957Z,8.20
2019-05-23T06:03:05.040Z,7.07
2019-05-23T06:06:27.185Z,5.80
2019-05-23T06:09:33.036Z,6.53
2019-05-23T06:12:38.161Z,5.23
2019-05-23T06:15:44.210Z,6.30
2019-05-23T06:18:49.579Z,5.87
2019-05-23T06:21:54.945Z,8.07
2019-05-23T06:25:00.025Z,8.13
2019-05-23T06:28:34.222Z,9.57
2019-05-23T06:31:43.189Z,8.33
2019-05-23T06:34:49.914Z,6.63
2019-05-23T06:37:55.193Z,10.00
2019-05-23T06:41:01.731Z,7.30
2019-05-23T06:44:09.256Z,6.80
2019-05-23T06:47:14.574Z,6.47
2019-05-23T06:50:21.689Z,9.83
2019-05-23T06:53:26.623Z,7.57
2019-05-23T06:56:32.021Z,5.87
2019-05-23T06:59:37.508Z,8.17
2019-05-23T07:02:42.893Z,6.27
2019-05-23T07:05:48.239Z,5.70
2019-05-23T07:08:54.189Z,6.10
2019-05-23T07:12:01.080Z,6.07
2019-05-23T07:15:06.767Z,6.50
2019-05-23T07:18:13.714Z,7.70
2019-05-23T07:21:19.030Z,6.47
2019-05-23T07:24:25.007Z,4.80
2019-05-23T07:27:31.248Z,5.57
2019-05-23T07:30:36.316Z,4.47
2019-05-23T07:33:59.884Z,4.57
2019-05-23T07:36:48.352Z,8.30
2019-05-23T07:39:53.613Z,4.47
2019-05-23T07:42:58.852Z,4.83
2019-05-23T07:46:05.050Z,5.07
2019-05-23T07:49:10.680Z,8.47
2019-05-23T07:52:16.771Z,7.90
2019-05-23T07:55:32.242Z,5.30
2019-05-23T07:58:37.325Z,5.00
2019-05-23T08:01:46.619Z,4.70
2019-05-23T08:04:52.159Z,3.97
2019-05-23T08:07:57.888Z,5.00
2019-05-23T08:11:02.941Z,5.10
2019-05-23T08:14:11.907Z,4.80
2019-05-23T08:17:15.739Z,5.70
2019-05-23T08:20:21.485Z,5.40
2019-05-23T08:23:26.546Z,3.83
2019-05-23T08:26:34.173Z,3.00
2019-05-23T08:29:39.903Z,4.90
2019-05-23T08:32:44.752Z,4.57
2019-05-23T08:35:49.818Z,4.03
2019-05-23T08:38:55.377Z,3.40
2019-05-23T08:42:00.712Z,4.10
2019-05-23T08:45:06.970Z,7.33
2019-05-23T08:48:12.014Z,3.97
2019-05-23T08:51:20.144Z,2.67
2019-05-23T08:54:25.102Z,3.33
2019-05-23T08:57:31.269Z,4.30
2019-05-23T09:00:38.032Z,2.90
2019-05-23T09:03:43.432Z,2.80
2019-05-23T09:06:48.593Z,3.00
2019-05-23T09:09:53.825Z,2.83
2019-05-23T09:12:59.690Z,4.07
2019-05-23T09:16:04.773Z,3.13
2019-05-23T09:19:10.031Z,2.60
2019-05-23T09:22:15.212Z,2.20
2019-05-23T09:25:20.405Z,2.27
2019-05-23T09:28:25.883Z,1.70
2019-05-23T09:31:31.743Z,2.40
2019-05-23T09:34:36.995Z,2.47
2019-05-23T09:37:42.116Z,2.30
2019-05-23T09:40:47.161Z,2.30
2019-05-23T09:43:53.292Z,1.90
2019-05-23T09:46:58.466Z,5.10
2019-05-23T09:50:04.151Z,1.57
2019-05-23T09:53:09.697Z,2.13
2019-05-23T09:56:14.680Z,2.20
2019-05-23T09:59:19.944Z,1.80
2019-05-23T10:02:25.115Z,1.90
2019-05-23T10:05:42.780Z,2.23
2019-05-23T10:08:37.040Z,2.30
2019-05-23T10:11:42.696Z,2.50
2019-05-23T10:14:55.581Z,2.50
2019-05-23T10:18:01.179Z,3.23
2019-05-23T10:21:06.660Z,2.97
2019-05-23T10:24:11.904Z,2.80
2019-05-23T10:27:17.881Z,2.30
2019-05-23T10:30:23.586Z,4.80
2019-05-23T10:33:28.569Z,2.10
2019-05-23T10:36:33.837Z,2.63
2019-05-23T10:39:38.990Z,2.77
2019-05-23T10:42:44.064Z,3.30
2019-05-23T10:45:49.368Z,2.40
2019-05-23T10:48:54.957Z,1.70
2019-05-23T10:51:59.880Z,3.23
2019-05-23T10:55:05.666Z,2.80
2019-05-23T10:58:11.655Z,2.30
2019-05-23T11:01:16.836Z,2.80
2019-05-23T11:04:21.791Z,2.27
2019-05-23T11:07:28.341Z,2.30
2019-05-23T11:10:33.439Z,2.77
2019-05-23T11:13:38.710Z,2.47
2019-05-23T11:16:44.458Z,2.87
2019-05-23T11:19:49.672Z,2.73
2019-05-23T11:22:54.884Z,3.17
2019-05-23T11:26:02.430Z,2.30
2019-05-23T11:29:09.079Z,1.90
2019-05-23T11:32:14.131Z,2.60
2019-05-23T11:35:19.175Z,2.27
2019-05-23T11:38:25.076Z,3.23
2019-05-23T11:41:30.353Z,2.37
2019-05-23T11:44:35.602Z,1.80
2019-05-23T11:47:41.018Z,1.80
2019-05-23T11:50:46.958Z,2.17
2019-05-23T11:54:06.648Z,1.77
2019-05-23T11:57:18.067Z,2.50
2019-05-23T12:00:42.317Z,3.00
2019-05-23T12:03:48.386Z,3.50
2019-05-23T12:06:59.763Z,2.07
2019-05-23T12:10:05.639Z,2.80
2019-05-23T12:13:10.989Z,2.50
2019-05-23T12:16:16.762Z,3.10
2019-05-23T12:19:21.939Z,2.40
2019-05-23T12:22:28.456Z,3.80
2019-05-23T12:25:34.615Z,5.30
2019-05-23T12:28:39.731Z,1.90
2019-05-23T12:31:49.589Z,2.27
2019-05-23T12:35:09.646Z,3.00
2019-05-23T12:38:02.679Z,3.60
2019-05-23T12:41:08.073Z,1.97
2019-05-23T12:44:17.367Z,2.20
2019-05-23T12:47:42.533Z,2.40
2019-05-23T12:50:52.685Z,2.77
2019-05-23T12:53:55.034Z,2.37
2019-05-23T12:57:02.540Z,2.63
2019-05-23T13:00:12.617Z,2.47
2019-05-23T13:03:17.843Z,2.00
2019-05-23T13:06:23.749Z,2.33
2019-05-23T13:09:28.704Z,2.17
2019-05-23T13:12:34.073Z,2.20
2019-05-23T13:15:39.258Z,3.70
2019-05-23T13:18:44.539Z,2.17
2019-05-23T13:21:49.734Z,2.73
2019-05-23T13:24:54.776Z,2.47
2019-05-23T13:27:59.978Z,2.37
2019-05-23T13:31:05.296Z,2.33
2019-05-23T13:34:10.686Z,4.10
2019-05-23T13:37:17.398Z,2.77
2019-05-23T13:40:22.667Z,2.00
2019-05-23T13:43:29.397Z,2.60
2019-05-23T13:46:34.561Z,1.87
2019-05-23T13:49:39.284Z,2.40
2019-05-23T13:52:44.734Z,2.93
2019-05-23T13:55:49.827Z,3.73
2019-05-23T13:58:54.859Z,2.20
2019-05-23T14:02:00.039Z,3.27
2019-05-23T14:05:06.069Z,2.10
2019-05-23T14:08:13.391Z,2.20
2019-05-23T14:11:18.333Z,2.77
2019-05-23T14:14:23.197Z,4.50
2019-05-23T14:17:42.733Z,2.13
2019-05-23T14:21:06.672Z,3.00
2019-05-23T14:24:12.139Z,2.73
2019-05-23T14:27:36.561Z,1.90
2019-05-23T14:31:00.738Z,4.20
2019-05-23T14:34:12.521Z,2.00
2019-05-23T14:37:23.734Z,2.80
2019-05-23T14:40:28.961Z,3.10
2019-05-23T14:43:34.358Z,5.00
2019-05-23T14:46:48.201Z,2.10
2019-05-23T14:50:24.744Z,2.00
2019-05-23T14:53:31.475Z,2.03
2019-05-23T14:56:38.075Z,2.20
2019-05-23T14:59:43.535Z,2.57
2019-05-23T15:02:48.654Z,2.27
2019-05-23T15:05:54.222Z,2.50
2019-05-23T15:08:59.323Z,2.50
2019-05-23T15:12:05.202Z,1.80
2019-05-23T15:15:10.757Z,2.10
2019-05-23T15:18:15.683Z,2.13
2019-05-23T15:21:20.796Z,1.93
2019-05-23T15:24:26.239Z,2.90
2019-05-23T15:27:33.155Z,2.20
2019-05-23T15:30:38.759Z,2.47
2019-05-23T15:33:44.125Z,1.90
2019-05-23T15:36:48.933Z,3.83
2019-05-23T15:39:57.212Z,1.83
2019-05-23T15:43:02.577Z,2.10
2019-05-23T15:46:07.715Z,2.80
2019-05-23T15:49:14.089Z,2.30
2019-05-23T15:52:33.645Z,2.40
2019-05-23T15:55:51.662Z,2.43
2019-05-23T15:59:24.910Z,3.80
2019-05-23T16:02:48.814Z,2.77
2019-05-23T16:05:59.236Z,2.43
2019-05-23T16:09:07.142Z,2.00
2019-05-23T16:12:13.128Z,1.90
2019-05-23T16:15:18.581Z,2.80
2019-05-23T16:18:23.498Z,3.50
2019-05-23T16:21:37.054Z,2.50
2019-05-23T16:24:42.200Z,2.20
2019-05-23T16:27:47.349Z,2.07
2019-05-23T16:30:53.298Z,2.47
2019-05-23T16:33:58.222Z,2.37
2019-05-23T16:37:03.400Z,2.60
2019-05-23T16:40:09.367Z,2.90
2019-05-23T16:43:15.225Z,2.60
2019-05-23T16:46:20.695Z,2.60
2019-05-23T16:49:29.206Z,3.03
2019-05-23T16:52:35.511Z,3.80
2019-05-23T16:55:59.495Z,4.10
2019-05-23T16:59:13.301Z,4.10
2019-05-23T17:02:35.573Z,3.10
2019-05-23T17:06:11.574Z,5.47
2019-05-23T17:10:06.549Z,5.87
2019-05-23T17:13:15.967Z,2.67
2019-05-23T17:16:54.962Z,2.37
2019-05-23T17:20:20.315Z,2.90
2019-05-23T17:23:53.290Z,2.80
2019-05-23T17:27:15.365Z,3.50
2019-05-23T17:30:37.526Z,2.93
2019-05-23T17:33:44.400Z,4.00
2019-05-23T17:36:49.609Z,2.50
2019-05-23T17:39:54.863Z,4.17
2019-05-23T17:43:00.390Z,3.00
2019-05-23T17:46:05.415Z,2.63
2019-05-23T17:49:13.935Z,3.20
2019-05-23T17:52:20.736Z,3.00
2019-05-23T17:55:26.965Z,2.70
2019-05-23T17:58:33.082Z,3.07
2019-05-23T18:01:44.403Z,2.97
2019-05-23T18:04:49.276Z,3.93
2019-05-23T18:07:54.337Z,2.90
2019-05-23T18:10:59.805Z,2.50
2019-05-23T18:14:05.075Z,3.23
2019-05-23T18:17:11.568Z,3.03
2019-05-23T18:20:20.350Z,3.30
2019-05-23T18:23:25.963Z,2.57
2019-05-23T18:26:31.772Z,2.83
2019-05-23T18:29:37.326Z,3.17
2019-05-23T18:32:42.669Z,3.50
2019-05-23T18:35:48.230Z,3.03
2019-05-23T18:38:53.874Z,3.00
2019-05-23T18:41:59.667Z,3.40
2019-05-23T18:45:06.417Z,3.60
2019-05-23T18:48:11.593Z,2.70
2019-05-23T18:51:16.639Z,5.30
2019-05-23T18:54:22.199Z,5.20
2019-05-23T18:57:26.926Z,2.67
2019-05-23T19:01:22.503Z,3.00
2019-05-23T19:04:27.929Z,2.93
2019-05-23T19:07:33.258Z,2.57
2019-05-23T19:10:38.215Z,2.70
2019-05-23T19:13:43.741Z,3.70
2019-05-23T19:16:48.670Z,2.93
2019-05-23T19:19:54.108Z,4.33
2019-05-23T19:22:59.566Z,3.10
2019-05-23T19:26:05.058Z,2.97
2019-05-23T19:29:12.206Z,3.37
2019-05-23T19:32:17.653Z,2.67
2019-05-23T19:35:23.317Z,3.57
2019-05-23T19:38:28.457Z,3.70
2019-05-23T19:41:37.564Z,3.50
2019-05-23T19:44:40.445Z,2.43
2019-05-23T19:47:45.865Z,2.47
2019-05-23T19:50:51.835Z,2.93
2019-05-23T19:53:57.628Z,3.03
2019-05-23T19:57:02.376Z,3.23
2019-05-23T20:00:10.127Z,3.13
2019-05-23T20:03:15.108Z,3.17
2019-05-23T20:06:20.984Z,4.07
2019-05-23T20:09:27.627Z,3.17
2019-05-23T20:12:32.921Z,4.37
2019-05-23T20:15:38.115Z,3.20
2019-05-23T20:18:43.150Z,2.70
2019-05-23T20:21:48.323Z,2.53
2019-05-23T20:24:53.790Z,2.60
2019-05-23T20:28:07.272Z,2.33
2019-05-23T20:31:12.275Z,2.50
2019-05-23T20:34:17.733Z,2.47
2019-05-23T20:37:22.794Z,2.80
2019-05-23T20:40:28.371Z,4.70
2019-05-23T20:43:33.640Z,2.50
2019-05-23T20:46:39.045Z,2.70
2019-05-23T20:49:44.249Z,2.83
2019-05-23T20:52:49.399Z,3.47
2019-05-23T20:55:54.506Z,2.60
2019-05-23T20:58:59.495Z,2.50
2019-05-23T21:02:04.881Z,2.60
2019-05-23T21:05:11.806Z,2.33
2019-05-23T21:08:17.113Z,2.23
2019-05-23T21:11:26.344Z,2.63
2019-05-23T21:14:31.183Z,2.60
2019-05-23T21:17:37.981Z,5.13
2019-05-23T21:20:43.226Z,2.27
2019-05-23T21:23:48.463Z,2.10
2019-05-23T21:26:53.329Z,2.30
2019-05-23T21:29:58.554Z,2.90
2019-05-23T21:33:04.016Z,3.60
2019-05-23T21:36:09.223Z,2.70
2019-05-23T21:39:14.958Z,2.70
2019-05-23T21:42:20.143Z,2.70
2019-05-23T21:45:24.984Z,4.53
2019-05-23T21:48:30.126Z,3.60
2019-05-23T21:51:35.144Z,2.03
2019-05-23T21:54:40.433Z,3.30
2019-05-23T21:57:45.390Z,2.47
2019-05-23T22:01:23.349Z,1.90
2019-05-23T22:04:31.740Z,2.20
2019-05-23T22:07:37.173Z,2.70
2019-05-23T22:10:43.026Z,2.90
2019-05-23T22:13:48.331Z,2.63
2019-05-23T22:16:53.372Z,3.40
2019-05-23T22:19:58.649Z,3.50
2019-05-23T22:23:04.232Z,2.63
2019-05-23T22:26:09.332Z,2.60
2019-05-23T22:29:14.728Z,2.93
2019-05-23T22:32:23.748Z,3.30
2019-05-23T22:35:29.342Z,3.90
2019-05-23T22:38:34.410Z,3.10
2019-05-23T22:41:39.585Z,5.03
2019-05-23T22:44:46.100Z,2.90
2019-05-23T22:47:51.400Z,2.97
2019-05-23T22:50:56.265Z,3.30
2019-05-23T22:54:01.273Z,2.93
2019-05-23T22:57:06.338Z,4.17
2019-05-23T23:00:14.227Z,4.43
2019-05-23T23:03:19.576Z,3.73
2019-05-23T23:06:25.495Z,3.80
2019-05-23T23:09:30.542Z,4.27
2019-05-23T23:12:35.554Z,3.20
2019-05-23T23:15:40.565Z,3.80
2019-05-23T23:19:04.710Z,3.37
2019-05-23T23:22:12.702Z,3.97
2019-05-23T23:25:18.018Z,3.67
2019-05-23T23:28:23.127Z,3.77
2019-05-23T23:31:28.516Z,3.77
2019-05-23T23:34:33.565Z,3.47
2019-05-23T23:37:38.595Z,3.57
2019-05-23T23:40:43.818Z,3.97
2019-05-23T23:43:58.846Z,4.10
2019-05-23T23:47:13.446Z,3.57
2019-05-23T23:50:36.247Z,6.07
2019-05-23T23:53:58.868Z,3.73
2019-05-23T23:57:21.586Z,3.40
